Time;durP1;ratioP1;P1;durP2;ratioP2;P2;SDS_P1;SDS_P2;PMS_P1;PMS_P2;Temp;Humidity;BMP_temperature;BMP_pressure;BME280_temperature;BME280_humidity;BME280_pressure;Samples;Min_cycle;Max_cycle;Signal;HPM_P1;HPM_P2
2022/12/12 00:00:08;;;;;;;52.22;15.60;;;1.20;99.90;;;;;;5055766;28;20044;-74
2022/12/12 00:02:37;;;;;;;48.47;14.73;;;1.10;99.90;;;;;;5072589;28;20048;-76
2022/12/12 00:05:04;;;;;;;51.10;16.58;;;1.20;99.90;;;;;;5073170;28;20051;-75
2022/12/12 00:07:29;;;;;;;51.70;16.17;;;1.20;99.90;;;;;;5055652;28;20048;-75
2022/12/12 00:09:55;;;;;;;47.83;15.93;;;1.10;99.90;;;;;;5038656;28;20150;-75
2022/12/12 00:12:22;;;;;;;47.58;16.05;;;1.20;99.90;;;;;;5072369;28;20445;-75
2022/12/12 00:14:47;;;;;;;52.22;16.10;;;1.10;99.90;;;;;;5039038;28;20102;-76
2022/12/12 00:17:13;;;;;;;51.38;16.42;;;1.10;99.90;;;;;;5038798;28;20052;-75
2022/12/12 00:19:39;;;;;;;47.00;15.15;;;1.20;99.90;;;;;;5055365;28;20395;-76
2022/12/12 00:22:05;;;;;;;49.10;16.95;;;1.20;99.90;;;;;;5054921;28;20052;-74
2022/12/12 00:24:31;;;;;;;54.30;16.23;;;1.10;99.90;;;;;;5038888;28;20041;-75
2022/12/12 00:26:57;;;;;;;46.97;16.08;;;1.10;99.90;;;;;;5038613;28;20083;-76
2022/12/12 00:29:23;;;;;;;50.33;16.40;;;1.10;99.90;;;;;;5054883;28;20254;-75
2022/12/12 00:31:49;;;;;;;45.50;15.35;;;1.10;99.90;;;;;;5055276;28;20056;-74
2022/12/12 00:34:15;;;;;;;52.28;16.75;;;1.10;99.90;;;;;;5053849;28;20463;-74
2022/12/12 00:36:40;;;;;;;53.55;16.65;;;1.10;99.90;;;;;;5072996;28;20487;-74
2022/12/12 00:39:06;;;;;;;50.00;16.00;;;2.10;99.90;;;;;;5038179;28;20048;-73
2022/12/12 00:41:32;;;;;;;51.35;16.25;;;1.10;99.90;;;;;;5038416;28;20044;-73
2022/12/12 00:43:58;;;;;;;43.42;15.75;;;1.10;99.90;;;;;;5054978;28;20056;-74
2022/12/12 00:46:25;;;;;;;49.70;16.30;;;1.10;99.90;;;;;;5021619;28;20055;-74
2022/12/12 00:48:54;;;;;;;47.28;17.02;;;1.10;99.90;;;;;;5055109;28;20052;-74
2022/12/12 00:51:22;;;;;;;50.33;16.48;;;1.30;99.90;;;;;;5071517;28;20445;-74
2022/12/12 00:53:50;;;;;;;43.65;15.20;;;1.10;99.90;;;;;;5054934;28;20048;-74
2022/12/12 00:56:19;;;;;;;53.78;17.42;;;1.10;99.90;;;;;;5071436;28;20048;-74
2022/12/12 00:58:45;;;;;;;46.22;16.17;;;1.10;99.90;;;;;;5054910;28;20048;-74
2022/12/12 01:01:20;;;;;;;43.15;15.48;;;1.20;99.90;;;;;;5054394;28;20044;-74
2022/12/12 01:03:46;;;;;;;45.33;16.05;;;1.10;99.90;;;;;;5054842;28;20050;-74
2022/12/12 01:06:12;;;;;;;49.08;15.63;;;1.10;99.90;;;;;;5070935;28;20044;-74
2022/12/12 01:08:38;;;;;;;47.20;15.65;;;1.10;99.90;;;;;;5054421;28;20059;-74
2022/12/12 01:11:05;;;;;;;45.30;15.50;;;1.10;99.90;;;;;;5021164;28;20088;-74
2022/12/12 01:13:31;;;;;;;57.35;16.85;;;1.10;99.90;;;;;;5054707;28;20052;-72
2022/12/12 01:15:57;;;;;;;48.47;15.55;;;1.10;99.90;;;;;;5054783;28;20048;-73
2022/12/12 01:18:23;;;;;;;54.17;16.30;;;1.10;99.90;;;;;;5071239;28;20101;-74
2022/12/12 01:20:49;;;;;;;50.05;16.85;;;1.10;99.90;;;;;;5071431;28;20359;-73
2022/12/12 01:23:15;;;;;;;44.13;14.85;;;1.10;99.90;;;;;;5037943;28;20044;-74
2022/12/12 01:25:41;;;;;;;51.10;16.42;;;2.10;99.90;;;;;;5054011;28;20040;-74
2022/12/12 01:28:07;;;;;;;50.28;16.33;;;1.10;99.90;;;;;;5054472;28;20129;-75
2022/12/12 01:30:33;;;;;;;49.92;16.20;;;1.10;99.90;;;;;;5054488;28;20052;-75
2022/12/12 01:32:59;;;;;;;51.38;15.30;;;1.10;99.90;;;;;;5054507;28;20056;-74
2022/12/12 01:35:26;;;;;;;45.00;15.32;;;1.10;99.90;;;;;;5070535;28;20050;-74
2022/12/12 01:37:53;;;;;;;44.22;15.30;;;1.10;99.90;;;;;;5021362;28;20094;-74
2022/12/12 01:40:24;;;;;;;46.42;15.93;;;1.10;99.90;;;;;;5037953;28;20063;-74
2022/12/12 01:42:50;;;;;;;44.85;15.27;;;1.10;99.90;;;;;;5054334;28;20490;-74
2022/12/12 01:46:10;;;;;;;44.60;14.43;;;2.10;99.90;;;;;;5054730;28;20080;-75
2022/12/12 01:48:49;;;;;;;41.97;15.80;;;1.10;99.90;;;;;;4998024;28;20050;-76
2022/12/12 01:51:20;;;;;;;48.13;16.13;;;1.10;99.90;;;;;;5050587;28;20088;-76
2022/12/12 01:53:50;;;;;;;44.38;15.73;;;1.10;99.90;;;;;;5075242;28;20102;-75
2022/12/12 01:56:18;;;;;;;49.25;15.95;;;1.10;99.90;;;;;;5058266;28;20055;-75
2022/12/12 01:58:46;;;;;;;43.53;14.63;;;1.10;99.90;;;;;;5058223;28;20060;-76
2022/12/12 02:01:14;;;;;;;41.40;14.30;;;1.10;99.90;;;;;;5058364;28;20106;-76
2022/12/12 02:03:41;;;;;;;45.88;15.90;;;1.10;99.90;;;;;;5058189;28;20135;-76
2022/12/12 02:06:13;;;;;;;45.47;15.90;;;1.10;99.90;;;;;;5024946;28;20124;-75
2022/12/12 02:08:40;;;;;;;47.70;15.82;;;1.10;99.90;;;;;;5058101;28;20052;-75
2022/12/12 02:11:06;;;;;;;39.22;14.65;;;1.10;99.90;;;;;;5040875;28;20061;-75
2022/12/12 02:13:33;;;;;;;44.45;15.65;;;1.10;99.90;;;;;;5074283;28;20053;-74
2022/12/12 02:16:11;;;;;;;50.80;16.75;;;1.00;99.90;;;;;;5058003;28;20045;-75
2022/12/12 02:19:04;;;;;;;47.53;15.32;;;2.00;99.90;;;;;;5057792;28;20044;-74
2022/12/12 02:21:46;;;;;;;45.17;15.95;;;1.10;99.90;;;;;;5016945;28;20114;-74
2022/12/12 02:24:46;;;;;;;41.63;14.77;;;1.00;99.90;;;;;;5057700;28;20529;-74
2022/12/12 02:27:20;;;;;;;46.63;16.20;;;1.00;99.90;;;;;;5057835;28;20048;-74
2022/12/12 02:30:09;;;;;;;42.70;15.52;;;1.00;99.90;;;;;;5057800;28;20505;-76
2022/12/12 02:33:11;;;;;;;43.00;14.13;;;1.50;99.90;;;;;;5074173;28;20367;-75
2022/12/12 02:36:04;;;;;;;46.05;15.68;;;1.00;99.90;;;;;;5057446;28;20048;-74
2022/12/12 02:38:36;;;;;;;46.75;16.75;;;1.00;99.90;;;;;;5057301;28;20097;-74
2022/12/12 02:41:39;;;;;;;44.00;16.00;;;1.00;99.90;;;;;;5057157;28;20455;-75
2022/12/12 02:44:09;;;;;;;46.08;15.38;;;1.00;99.90;;;;;;5073898;28;20053;-75
2022/12/12 02:46:59;;;;;;;44.97;14.25;;;1.00;99.90;;;;;;5057188;28;20127;-75
2022/12/12 02:49:39;;;;;;;49.35;15.70;;;1.00;99.90;;;;;;5056895;28;20107;-73
2022/12/12 02:52:08;;;;;;;47.47;15.15;;;1.00;99.90;;;;;;5074066;28;20048;-74
2022/12/12 02:54:34;;;;;;;47.72;16.52;;;1.10;99.90;;;;;;5056960;28;20123;-74
2022/12/12 02:57:01;;;;;;;44.50;15.30;;;1.00;99.90;;;;;;5072827;28;20037;-74
2022/12/12 02:59:29;;;;;;;42.58;15.93;;;1.00;99.90;;;;;;5040343;28;20047;-74
2022/12/12 03:02:06;;;;;;;47.85;15.55;;;1.00;99.90;;;;;;5073911;28;20051;-74
2022/12/12 03:07:53;;;;;;;44.38;15.45;;;1.00;99.90;;;;;;5073447;28;20098;-76
2022/12/12 03:10:34;;;;;;;42.60;14.65;;;1.00;99.90;;;;;;5056673;28;20061;-76
2022/12/12 03:13:27;;;;;;;46.90;15.27;;;1.00;99.90;;;;;;5056741;28;20052;-75
2022/12/12 03:16:31;;;;;;;41.75;14.85;;;1.00;99.90;;;;;;5057002;28;20052;-75
2022/12/12 03:18:59;;;;;;;42.80;15.60;;;1.00;99.90;;;;;;5056978;28;20127;-75
2022/12/12 03:21:34;;;;;;;44.80;16.75;;;1.00;99.90;;;;;;5056715;28;20375;-74
2022/12/12 03:24:06;;;;;;;45.72;15.98;;;1.00;99.90;;;;;;5073302;28;20054;-75
2022/12/12 03:27:00;;;;;;;47.67;16.85;;;1.00;99.90;;;;;;5056666;28;20127;-75
2022/12/12 03:30:03;;;;;;;44.47;15.77;;;1.20;99.90;;;;;;5070603;28;20102;-75
2022/12/12 03:32:56;;;;;;;41.95;15.07;;;1.00;99.90;;;;;;5056461;28;20048;-75
2022/12/12 03:35:28;;;;;;;41.72;14.68;;;1.00;99.90;;;;;;5045902;28;20098;-76
2022/12/12 03:38:00;;;;;;;45.95;14.73;;;1.00;99.90;;;;;;5073116;28;20478;-75
2022/12/12 03:40:40;;;;;;;39.83;14.88;;;1.00;99.90;;;;;;5056404;28;20045;-75
2022/12/12 03:43:17;;;;;;;42.15;15.23;;;1.00;99.90;;;;;;5056511;28;20055;-76
2022/12/12 03:46:02;;;;;;;47.53;16.13;;;1.00;99.90;;;;;;5089373;28;20052;-75
2022/12/12 03:48:30;;;;;;;42.92;14.80;;;1.00;99.90;;;;;;5055855;28;20109;-75
2022/12/12 03:51:26;;;;;;;48.38;15.25;;;1.00;99.90;;;;;;5072803;28;20044;-75
2022/12/12 03:54:04;;;;;;;39.65;14.45;;;1.00;99.90;;;;;;5053856;28;20052;-75
2022/12/12 03:56:48;;;;;;;46.33;14.90;;;1.00;99.90;;;;;;5055863;28;20051;-75
2022/12/12 03:59:19;;;;;;;42.15;15.43;;;1.00;99.90;;;;;;5072714;28;20044;-75
2022/12/12 04:01:48;;;;;;;;;;;1.00;99.90;;;;;;5056263;28;20056;-75
2022/12/12 04:04:26;;;;;;;40.67;14.40;;;1.00;99.90;;;;;;5072315;28;19943;-74
2022/12/12 04:07:17;;;;;;;41.38;15.52;;;1.00;99.90;;;;;;5055641;28;20094;-74
2022/12/12 04:13:02;;;;;;;44.33;15.45;;;1.00;99.90;;;;;;5061525;28;20502;-74
2022/12/12 04:15:52;;;;;;;40.38;14.48;;;1.00;99.90;;;;;;5059012;28;20043;-75
2022/12/12 04:18:36;;;;;;;38.92;15.00;;;1.00;99.90;;;;;;5059077;28;20055;-74
2022/12/12 04:23:55;;;;;;;42.83;15.82;;;1.00;99.90;;;;;;5075282;28;20052;-76
2022/12/12 04:26:46;;;;;;;41.10;14.60;;;1.00;99.90;;;;;;5058878;28;20102;-75
2022/12/12 04:29:25;;;;;;;39.53;14.93;;;1.00;99.90;;;;;;5058810;28;20131;-75
2022/12/12 04:32:02;;;;;;;38.42;15.38;;;1.00;99.90;;;;;;5058143;28;20054;-74
2022/12/12 04:34:42;;;;;;;40.22;14.30;;;1.00;99.90;;;;;;5075444;28;20105;-76
2022/12/12 04:37:14;;;;;;;37.83;13.98;;;0.90;99.90;;;;;;5055352;28;20131;-76
2022/12/12 04:39:41;;;;;;;41.95;15.15;;;0.90;99.90;;;;;;5072909;28;20044;-78
2022/12/12 04:42:13;;;;;;;43.17;15.07;;;0.90;99.90;;;;;;5056304;28;20052;-78
2022/12/12 04:44:40;;;;;;;43.72;16.17;;;0.80;99.90;;;;;;4697125;28;10000616;-77
2022/12/12 04:47:08;;;;;;;39.78;15.05;;;0.80;99.90;;;;;;5019858;28;20099;-77
2022/12/12 04:49:36;;;;;;;44.75;15.15;;;0.80;99.90;;;;;;5052944;28;20070;-77
2022/12/12 04:52:06;;;;;;;41.33;15.25;;;0.80;99.90;;;;;;5052673;28;20052;-77
2022/12/12 04:54:59;;;;;;;42.85;16.27;;;0.80;99.90;;;;;;5036542;28;20044;-77
2022/12/12 04:57:31;;;;;;;42.67;14.30;;;0.80;99.90;;;;;;5035425;28;20053;-78
2022/12/12 04:59:57;;;;;;;44.65;15.82;;;0.80;99.90;;;;;;5052275;28;20135;-78
2022/12/12 05:02:33;;;;;;;44.65;16.00;;;0.80;99.90;;;;;;5036272;28;20084;-78
2022/12/12 05:05:08;;;;;;;43.42;15.73;;;1.00;99.90;;;;;;5052722;28;20044;-79
2022/12/12 05:07:40;;;;;;;49.58;16.55;;;0.70;99.90;;;;;;5052742;28;20419;-78
2022/12/12 05:10:13;;;;;;;44.55;16.52;;;0.70;99.90;;;;;;5035929;28;20079;-78
2022/12/12 05:12:45;;;;;;;50.85;17.60;;;0.70;99.90;;;;;;5035419;28;20142;-78
2022/12/12 05:15:11;;;;;;;43.50;16.90;;;0.70;99.90;;;;;;5036095;28;20067;-78
2022/12/12 05:17:44;;;;;;;46.10;16.38;;;0.70;99.90;;;;;;5036010;28;20491;-78
2022/12/12 05:20:10;;;;;;;52.47;18.13;;;0.70;99.90;;;;;;5052218;28;20461;-78
2022/12/12 05:22:36;;;;;;;47.78;16.77;;;0.70;99.90;;;;;;5035712;28;20048;-78
2022/12/12 05:25:02;;;;;;;43.92;16.25;;;0.70;99.90;;;;;;5018863;28;20044;-78
2022/12/12 05:27:28;;;;;;;45.90;16.65;;;0.70;99.90;;;;;;5035603;28;20052;-77
2022/12/12 05:29:54;;;;;;;41.00;15.75;;;0.70;99.90;;;;;;5035642;28;20101;-77
2022/12/12 05:32:20;;;;;;;44.88;16.08;;;0.70;99.90;;;;;;5021759;28;20048;-78
2022/12/12 05:34:46;;;;;;;44.15;14.98;;;0.70;99.90;;;;;;5005290;28;20384;-78
2022/12/12 05:37:12;;;;;;;42.47;15.82;;;0.70;99.90;;;;;;5021669;28;20418;-78
2022/12/12 05:39:38;;;;;;;39.90;15.05;;;0.70;99.90;;;;;;5038124;28;20139;-78
2022/12/12 05:42:04;;;;;;;40.28;15.77;;;0.70;99.90;;;;;;5071017;28;20549;-78
2022/12/12 05:44:29;;;;;;;44.70;15.60;;;0.70;99.90;;;;;;5021367;28;20045;-77
2022/12/12 05:46:55;;;;;;;43.38;15.30;;;0.70;99.90;;;;;;5037938;28;20044;-78
2022/12/12 05:49:21;;;;;;;41.70;15.43;;;0.70;99.90;;;;;;5021792;28;20045;-78
2022/12/12 05:51:47;;;;;;;37.45;14.20;;;0.70;99.90;;;;;;5054227;28;20041;-78
2022/12/12 05:54:13;;;;;;;36.88;13.13;;;0.70;99.90;;;;;;5038107;28;20055;-78
2022/12/12 05:56:39;;;;;;;28.77;11.95;;;0.70;99.90;;;;;;5021617;28;20092;-78
2022/12/12 05:59:05;;;;;;;29.38;11.60;;;0.60;99.90;;;;;;5037828;28;20088;-78
2022/12/12 06:01:31;;;;;;;35.60;13.75;;;0.60;99.90;;;;;;5037962;28;20052;-78
2022/12/12 06:03:57;;;;;;;33.65;12.50;;;0.50;99.90;;;;;;5037671;28;20044;-79
2022/12/12 06:06:23;;;;;;;39.70;14.63;;;0.40;99.90;;;;;;5021226;28;20102;-78
2022/12/12 06:08:50;;;;;;;38.63;13.65;;;1.40;99.90;;;;;;5037852;28;20055;-79
2022/12/12 06:11:16;;;;;;;43.97;15.82;;;0.30;99.90;;;;;;5017637;28;20053;-79
2022/12/12 06:13:42;;;;;;;48.92;15.90;;;0.30;99.90;;;;;;5051139;28;20129;-77
2022/12/12 06:16:11;;;;;;;45.78;15.48;;;0.30;99.90;;;;;;5050861;28;20049;-78
2022/12/12 06:18:37;;;;;;;39.70;16.23;;;0.30;99.90;;;;;;5034629;28;20202;-78
2022/12/12 06:21:06;;;;;;;47.38;16.58;;;0.20;99.90;;;;;;5050933;28;20049;-78
2022/12/12 06:23:38;;;;;;;47.00;17.08;;;0.20;99.90;;;;;;5051340;28;20124;-79
2022/12/12 06:26:05;;;;;;;48.75;16.95;;;0.20;99.90;;;;;;5033838;28;20036;-79
2022/12/12 06:28:31;;;;;;;48.53;17.55;;;0.60;99.90;;;;;;5018349;28;20558;-79
2022/12/12 06:30:57;;;;;;;55.22;17.13;;;0.10;99.90;;;;;;5050535;28;20179;-79
2022/12/12 06:33:23;;;;;;;52.90;17.05;;;0.00;99.90;;;;;;5053475;28;20044;-79
2022/12/12 06:36:04;;;;;;;54.47;19.42;;;0.00;99.90;;;;;;5037966;28;20052;-80
2022/12/12 06:38:30;;;;;;;48.15;16.00;;;-0.10;99.90;;;;;;5037842;28;20056;-79
2022/12/12 06:40:56;;;;;;;50.03;15.98;;;-0.20;99.90;;;;;;5054242;28;20110;-79
2022/12/12 06:43:23;;;;;;;52.30;17.05;;;-0.30;99.90;;;;;;5037778;28;20536;-80
2022/12/12 06:45:50;;;;;;;46.28;16.27;;;-0.30;99.90;;;;;;5037413;28;20076;-79
2022/12/12 06:48:16;;;;;;;54.80;17.10;;;-0.40;99.90;;;;;;5037695;28;20103;-79
2022/12/12 06:50:43;;;;;;;51.75;17.00;;;-0.50;99.90;;;;;;5037662;28;20063;-79
2022/12/12 06:53:10;;;;;;;53.42;16.80;;;-0.50;99.90;;;;;;5037469;28;20056;-80
2022/12/12 06:55:42;;;;;;;53.00;18.45;;;-0.60;99.90;;;;;;5037760;28;20443;-80
2022/12/12 06:58:09;;;;;;;56.70;17.80;;;-0.60;99.90;;;;;;5037520;28;20100;-79
2022/12/12 07:00:35;;;;;;;64.10;19.33;;;0.00;99.90;;;;;;5054156;28;20045;-78
2022/12/12 07:03:01;;;;;;;61.00;17.98;;;-0.60;99.90;;;;;;5021225;28;20048;-79
2022/12/12 07:05:27;;;;;;;67.47;20.23;;;-0.60;99.90;;;;;;5037123;28;20037;-80
2022/12/12 07:07:53;;;;;;;61.30;18.33;;;-0.70;99.90;;;;;;5021355;28;20044;-79
2022/12/12 07:10:19;;;;;;;63.50;19.65;;;-0.70;99.90;;;;;;5036777;28;20069;-79
2022/12/12 07:12:45;;;;;;;68.40;19.77;;;-0.70;99.90;;;;;;5054392;28;20049;-79
2022/12/12 07:15:11;;;;;;;68.60;20.25;;;-0.70;99.90;;;;;;5037214;28;20041;-79
2022/12/12 07:17:37;;;;;;;64.20;19.90;;;-0.70;99.90;;;;;;5037554;28;20045;-79
2022/12/12 07:20:04;;;;;;;67.78;19.17;;;-0.70;99.90;;;;;;5037170;28;20045;-79
2022/12/12 07:22:29;;;;;;;61.05;17.83;;;-0.70;99.90;;;;;;5037002;28;20055;-80
2022/12/12 07:24:55;;;;;;;60.78;17.77;;;-0.70;99.90;;;;;;5036310;28;20049;-79
2022/12/12 07:27:21;;;;;;;61.53;19.08;;;-0.80;99.90;;;;;;5053110;28;20048;-79
2022/12/12 07:29:47;;;;;;;62.83;17.13;;;-0.80;99.90;;;;;;5036550;28;20128;-79
2022/12/12 07:32:13;;;;;;;71.32;21.48;;;-0.80;99.90;;;;;;5036455;28;20467;-79
2022/12/12 07:34:39;;;;;;;70.63;20.48;;;-0.80;99.90;;;;;;5036929;28;20542;-78
2022/12/12 07:37:04;;;;;;;69.65;20.30;;;0.30;99.90;;;;;;5037038;28;20053;-78
2022/12/12 07:39:32;;;;;;;84.20;21.83;;;-0.10;99.90;;;;;;5020488;28;20051;-79
2022/12/12 07:41:58;;;;;;;73.90;20.60;;;-0.60;99.90;;;;;;5020359;28;20049;-80
2022/12/12 07:44:24;;;;;;;73.25;20.02;;;-0.60;99.90;;;;;;5019690;28;20099;-79
2022/12/12 07:46:50;;;;;;;76.05;21.23;;;-0.60;99.90;;;;;;5053457;28;20088;-80
2022/12/12 07:49:16;;;;;;;71.15;21.85;;;-0.50;99.90;;;;;;5036650;28;20076;-80
2022/12/12 07:51:42;;;;;;;80.90;22.52;;;-0.50;99.90;;;;;;5036595;28;20045;-80
2022/12/12 07:54:08;;;;;;;83.75;21.58;;;-0.30;99.90;;;;;;5036543;28;20112;-80
2022/12/12 07:56:34;;;;;;;79.72;22.98;;;-0.40;99.90;;;;;;5020090;28;20037;-79
2022/12/12 07:59:00;;;;;;;82.22;21.55;;;-0.40;99.90;;;;;;5036374;28;20443;-79
2022/12/12 08:01:26;;;;;;;63.15;17.60;;;-0.40;99.90;;;;;;5036086;28;20068;-79
2022/12/12 08:03:53;;;;;;;62.40;18.23;;;-0.40;99.90;;;;;;5052907;28;20057;-80
2022/12/12 08:06:21;;;;;;;72.53;19.10;;;-0.40;99.90;;;;;;5019407;28;20040;-80
2022/12/12 08:08:48;;;;;;;56.65;16.98;;;-0.40;99.90;;;;;;5052871;28;20114;-79
2022/12/12 08:11:17;;;;;;;70.47;20.95;;;-0.40;99.90;;;;;;5035666;28;20496;-80
2022/12/12 08:13:43;;;;;;;75.35;21.67;;;-0.40;99.90;;;;;;5052692;28;20434;-79
2022/12/12 08:16:21;;;;;;;83.43;21.30;;;-0.30;99.90;;;;;;5035943;28;20053;-79
2022/12/12 08:18:47;;;;;;;74.53;23.02;;;-0.20;99.90;;;;;;5036087;28;20048;-79
2022/12/12 08:21:15;;;;;;;79.25;21.67;;;-0.20;99.90;;;;;;5019721;28;20048;-79
2022/12/12 08:23:41;;;;;;;75.40;22.08;;;-0.10;99.90;;;;;;5019575;28;20479;-79
2022/12/12 08:26:10;;;;;;;82.13;23.83;;;0.00;99.90;;;;;;5052307;28;20045;-83
2022/12/12 08:28:37;;;;;;;69.60;22.30;;;0.00;99.90;;;;;;5052508;28;20163;-79
2022/12/12 08:31:03;;;;;;;71.60;20.80;;;0.00;99.90;;;;;;5052378;28;20048;-79
2022/12/12 08:33:29;;;;;;;70.22;20.73;;;0.10;99.90;;;;;;5035635;28;20060;-79
2022/12/12 08:35:55;;;;;;;72.10;21.88;;;0.10;99.90;;;;;;5052614;28;20482;-79
2022/12/12 08:38:21;;;;;;;74.40;21.27;;;0.10;99.90;;;;;;5019325;28;20044;-80
2022/12/12 08:40:47;;;;;;;71.10;20.65;;;0.20;99.90;;;;;;5019386;28;20053;-79
2022/12/12 08:43:13;;;;;;;60.65;20.38;;;0.20;99.90;;;;;;5018998;28;20144;-80
2022/12/12 08:45:39;;;;;;;63.67;20.33;;;0.20;99.90;;;;;;5035274;28;20056;-81
2022/12/12 08:48:06;;;;;;;68.75;20.65;;;0.20;99.90;;;;;;5035978;28;20500;-81
2022/12/12 08:50:33;;;;;;;60.10;19.40;;;0.20;99.90;;;;;;5035669;28;20479;-80
2022/12/12 08:52:59;;;;;;;56.03;19.13;;;0.10;99.90;;;;;;5035946;28;20049;-81
2022/12/12 08:55:24;;;;;;;56.63;18.67;;;0.10;99.90;;;;;;5018421;28;20048;-80
2022/12/12 08:57:50;;;;;;;57.70;18.42;;;0.10;99.90;;;;;;5035583;28;20399;-80
2022/12/12 09:00:16;;;;;;;49.28;17.92;;;0.10;99.90;;;;;;5002723;28;20047;-80
2022/12/12 09:02:42;;;;;;;63.90;18.80;;;0.00;99.90;;;;;;5019236;28;20091;-79
2022/12/12 09:05:09;;;;;;;54.70;18.02;;;0.10;99.90;;;;;;5035353;28;20423;-78
2022/12/12 09:07:35;;;;;;;69.78;20.75;;;0.10;99.90;;;;;;5051771;28;20267;-78
2022/12/12 09:10:01;;;;;;;70.25;21.13;;;0.20;99.90;;;;;;5053193;28;20494;-78
2022/12/12 09:12:28;;;;;;;67.18;20.75;;;0.20;99.90;;;;;;5034442;28;20060;-78
2022/12/12 09:14:54;;;;;;;69.97;22.05;;;0.30;99.90;;;;;;5018747;28;20049;-78
2022/12/12 09:17:19;;;;;;;65.00;22.75;;;0.30;99.90;;;;;;5035051;28;20097;-77
2022/12/12 09:19:45;;;;;;;76.57;23.10;;;0.30;99.90;;;;;;5035297;28;20128;-77
2022/12/12 09:22:11;;;;;;;86.65;27.55;;;0.30;99.90;;;;;;5051814;28;20379;-77
2022/12/12 09:24:37;;;;;;;73.93;23.65;;;0.40;99.90;;;;;;5051605;28;20446;-77
2022/12/12 09:27:03;;;;;;;73.43;23.85;;;0.50;99.90;;;;;;5035156;28;20514;-77
2022/12/12 09:29:29;;;;;;;71.15;24.17;;;0.50;99.90;;;;;;5018468;28;20087;-76
2022/12/12 09:31:55;;;;;;;65.00;22.35;;;0.60;99.90;;;;;;5018748;28;20095;-76
2022/12/12 09:34:21;;;;;;;66.82;20.67;;;0.60;99.90;;;;;;5034798;28;20111;-76
2022/12/12 09:36:47;;;;;;;60.88;20.75;;;0.60;99.90;;;;;;5051618;28;20450;-78
2022/12/12 09:39:12;;;;;;;71.68;20.67;;;1.40;99.90;;;;;;5051825;28;20408;-74
2022/12/12 09:41:38;;;;;;;61.42;19.92;;;0.50;99.90;;;;;;5051263;28;20053;-75
2022/12/12 09:44:06;;;;;;;60.63;21.20;;;0.50;99.90;;;;;;5052344;28;20048;-75
2022/12/12 09:46:41;;;;;;;59.05;19.73;;;1.50;99.90;;;;;;5034297;28;20044;-76
2022/12/12 09:49:11;;;;;;;70.63;19.63;;;0.50;99.90;;;;;;5051530;28;20049;-77
2022/12/12 09:51:38;;;;;;;56.45;20.13;;;0.50;99.90;;;;;;5051109;28;20075;-77
2022/12/12 09:54:04;;;;;;;61.17;20.13;;;0.60;99.90;;;;;;5034965;28;20118;-77
2022/12/12 09:56:45;;;;;;;66.28;21.15;;;0.70;99.90;;;;;;5051105;28;20049;-76
2022/12/12 09:59:16;;;;;;;68.45;22.15;;;0.70;99.90;;;;;;5051072;28;20056;-77
2022/12/12 10:02:00;;;;;;;70.40;21.13;;;0.80;99.90;;;;;;5051127;28;20052;-76
2022/12/12 10:04:39;;;;;;;67.95;23.45;;;0.90;99.90;;;;;;5051020;28;20048;-77
2022/12/12 10:07:12;;;;;;;66.10;23.52;;;1.00;99.90;;;;;;5053214;28;20479;-76
2022/12/12 10:09:56;;;;;;;59.47;20.20;;;1.10;99.90;;;;;;5054778;28;20125;-77
2022/12/12 10:12:22;;;;;;;67.00;20.80;;;1.20;99.90;;;;;;5025515;28;20406;-77
2022/12/12 10:14:53;;;;;;;62.10;21.08;;;1.30;99.90;;;;;;5002271;28;20050;-76
2022/12/12 10:17:32;;;;;;;63.83;19.88;;;1.50;99.90;;;;;;5018608;28;20057;-78
2022/12/12 10:20:03;;;;;;;60.45;22.17;;;1.50;99.90;;;;;;5034986;28;20042;-78
2022/12/12 10:22:47;;;;;;;58.92;20.25;;;1.50;99.90;;;;;;5034874;28;20050;-78
2022/12/12 10:25:19;;;;;;;57.55;20.25;;;1.50;99.90;;;;;;5034646;28;20536;-78
2022/12/12 10:27:44;;;;;;;;;;;2.80;99.90;;;;;;5018403;28;20491;-78
2022/12/12 10:30:16;;;;;;;57.47;19.30;;;1.60;99.90;;;;;;5002409;28;20016;-77
2022/12/12 10:33:01;;;;;;;55.95;19.98;;;1.70;99.90;;;;;;5018219;28;20049;-77
2022/12/12 10:36:06;;;;;;;59.70;20.77;;;1.80;99.90;;;;;;5034727;28;20041;-77
2022/12/12 10:39:07;;;;;;;54.28;19.70;;;1.80;99.90;;;;;;4970193;28;20061;-76
2022/12/12 10:41:43;;;;;;;51.00;18.98;;;1.90;99.90;;;;;;5034662;28;20181;-77
2022/12/12 10:44:19;;;;;;;54.70;19.95;;;1.80;99.90;;;;;;5018325;28;20046;-78
2022/12/12 10:46:54;;;;;;;55.28;20.38;;;1.90;99.90;;;;;;5017946;28;20150;-78
2022/12/12 10:49:22;;;;;;;61.83;23.05;;;1.80;99.90;;;;;;5034579;28;20049;-77
2022/12/12 10:51:50;;;;;;;58.10;22.92;;;1.80;99.90;;;;;;5034288;28;20056;-77
2022/12/12 10:54:18;;;;;;;59.92;22.42;;;1.70;99.90;;;;;;5017858;28;20049;-78
2022/12/12 10:57:09;;;;;;;50.33;19.88;;;1.70;99.90;;;;;;5034408;28;20080;-77
2022/12/12 10:59:46;;;;;;;52.53;20.63;;;1.70;99.90;;;;;;5034325;28;20049;-78
2022/12/12 11:02:33;;;;;;;52.22;20.05;;;1.70;99.90;;;;;;5032883;28;20053;-79
2022/12/12 11:05:09;;;;;;;50.90;19.40;;;1.70;99.90;;;;;;4696084;28;10000367;-77
2022/12/12 11:07:41;;;;;;;52.53;21.15;;;1.70;99.90;;;;;;5031458;28;20053;-78
2022/12/12 11:10:21;;;;;;;;;;;1.80;99.90;;;;;;5032047;28;20136;-77
2022/12/12 11:12:55;;;;;;;50.25;19.27;;;1.80;99.90;;;;;;5047035;28;19928;-78
2022/12/12 11:15:27;;;;;;;50.65;20.48;;;1.90;99.90;;;;;;5051289;28;20127;-78
2022/12/12 11:17:57;;;;;;;53.53;20.90;;;1.90;99.90;;;;;;5034098;28;20083;-77
2022/12/12 11:20:23;;;;;;;50.95;20.63;;;2.00;99.90;;;;;;5035401;28;20049;-79
2022/12/12 11:22:52;;;;;;;56.90;21.92;;;2.00;99.90;;;;;;5034465;28;20640;-78
2022/12/12 11:25:28;;;;;;;54.13;19.52;;;2.10;99.90;;;;;;5051386;28;20121;-77
2022/12/12 11:27:56;;;;;;;52.63;19.67;;;2.10;99.90;;;;;;5033653;28;20139;-77
2022/12/12 11:30:38;;;;;;;54.42;19.38;;;2.20;99.90;;;;;;5034779;28;20102;-78
2022/12/12 11:33:07;;;;;;;46.45;18.45;;;2.30;99.90;;;;;;5035058;28;20503;-79
2022/12/12 11:35:42;;;;;;;47.47;18.13;;;2.20;99.90;;;;;;5034547;28;20053;-79
2022/12/12 11:38:25;;;;;;;48.90;18.80;;;2.20;99.90;;;;;;5050902;28;20618;-78
2022/12/12 11:41:03;;;;;;;44.85;18.10;;;2.30;99.90;;;;;;5034713;28;20756;-78
2022/12/12 11:43:31;;;;;;;42.47;17.88;;;2.30;99.90;;;;;;5051120;28;20040;-77
2022/12/12 11:46:15;;;;;;;54.03;19.02;;;2.20;99.90;;;;;;5034274;28;20048;-78
2022/12/12 11:48:56;;;;;;;48.30;18.10;;;2.20;99.90;;;;;;5034619;28;20098;-78
2022/12/12 11:51:34;;;;;;;45.53;18.53;;;2.20;99.90;;;;;;5050524;28;20049;-78
2022/12/12 11:54:02;;;;;;;51.17;19.35;;;2.20;99.90;;;;;;5034510;28;20323;-79
2022/12/12 11:56:53;;;;;;;49.03;19.30;;;2.30;99.90;;;;;;5034140;28;20055;-78
2022/12/12 11:59:38;;;;;;;50.40;18.38;;;2.30;99.90;;;;;;5034155;28;20060;-78
2022/12/12 12:02:06;;;;;;;49.88;18.50;;;2.20;99.90;;;;;;5050762;28;20045;-79
2022/12/12 12:05:10;;;;;;;49.25;19.85;;;2.30;99.90;;;;;;5060003;28;20163;-79
2022/12/12 12:08:08;;;;;;;45.55;18.35;;;2.40;99.90;;;;;;5070627;28;20090;-78
2022/12/12 12:10:43;;;;;;;48.65;19.10;;;2.50;99.90;;;;;;5038571;28;20056;-78
2022/12/12 12:13:27;;;;;;;47.05;19.50;;;3.60;99.90;;;;;;5027385;28;20061;-78
2022/12/12 12:16:26;;;;;;;39.72;16.80;;;3.30;99.90;;;;;;5027327;28;20480;-77
2022/12/12 12:19:35;;;;;;;32.58;14.68;;;3.30;99.90;;;;;;5007785;28;20057;-78
2022/12/12 12:22:38;;;;;;;35.90;15.20;;;3.40;99.90;;;;;;5050067;28;20045;-77
2022/12/12 12:25:13;;;;;;;40.25;16.52;;;3.60;99.90;;;;;;5033528;28;20102;-77
2022/12/12 12:28:05;;;;;;;31.60;14.32;;;3.70;99.90;;;;;;5048524;28;20053;-77
2022/12/12 12:30:46;;;;;;;32.40;13.52;;;3.80;99.90;;;;;;5049882;28;20385;-77
2022/12/12 12:33:40;;;;;;;32.47;14.60;;;3.90;99.90;;;;;;5033599;28;20099;-78
2022/12/12 12:36:54;;;;;;;31.08;13.75;;;4.10;99.90;;;;;;5033562;28;20064;-78
2022/12/12 12:39:57;;;;;;;34.65;14.00;;;4.80;99.90;;;;;;4991844;28;20081;-79
2022/12/12 12:42:31;;;;;;;26.63;12.52;;;5.00;99.90;;;;;;4992446;28;20504;-79
2022/12/12 12:45:04;;;;;;;30.60;12.77;;;4.80;99.90;;;;;;5026507;28;20415;-78
2022/12/12 12:47:48;;;;;;;25.63;12.85;;;4.50;99.90;;;;;;5049792;28;20052;-78
2022/12/12 12:50:41;;;;;;;30.15;13.85;;;4.10;99.90;;;;;;5032806;28;20052;-78
2022/12/12 12:53:36;;;;;;;31.05;13.70;;;3.80;99.90;;;;;;5032290;28;20064;-77
2022/12/12 12:56:16;;;;;;;33.03;13.35;;;3.90;99.90;;;;;;5032445;28;20053;-78
2022/12/12 12:58:46;;;;;;;27.35;12.95;;;3.80;99.90;;;;;;5049503;28;20055;-77
2022/12/12 13:01:26;;;;;;;28.42;12.70;;;4.00;99.90;;;;;;5032969;28;20063;-78
2022/12/12 13:04:01;;;;;;;28.70;12.77;;;4.00;99.90;;;;;;5048659;28;20045;-78
2022/12/12 13:06:44;;;;;;;27.90;12.88;;;4.10;99.90;;;;;;5032881;28;20037;-78
2022/12/12 13:09:32;;;;;;;23.92;12.02;;;4.50;99.90;;;;;;5046150;28;20071;-78
2022/12/12 13:12:18;;;;;;;26.83;13.35;;;4.60;99.90;;;;;;5012589;28;20149;-77